Time;durP1;ratioP1;P1;durP2;ratioP2;P2;SDS_P1;SDS_P2;PMS_P1;PMS_P2;Temp;Humidity;BMP_temperature;BMP_pressure;BME280_temperature;BME280_humidity;BME280_pressure;Samples;Min_cycle;Max_cycle;Signal;HPM_P1;HPM_P2
2023/06/10 00:00:27;;;;;;;6.28;4.53;;;23.50;64.20;;;;;;6238059;28;20422;-68
2023/06/10 00:03:28;;;;;;;8.63;5.30;;;23.50;64.10;;;;;;6239453;28;20057;-69
2023/06/10 00:06:35;;;;;;;7.72;5.07;;;23.40;64.00;;;;;;6239345;28;20349;-69
2023/06/10 00:09:37;;;;;;;10.30;4.70;;;23.50;64.00;;;;;;6239991;28;20516;-68
2023/06/10 00:12:38;;;;;;;9.60;4.53;;;23.40;63.80;;;;;;6239367;28;20260;-69
2023/06/10 00:15:39;;;;;;;7.00;4.63;;;23.40;63.80;;;;;;6239818;28;20025;-68
2023/06/10 00:18:40;;;;;;;7.25;4.55;;;23.50;63.80;;;;;;6239649;28;20433;-68
2023/06/10 00:21:41;;;;;;;7.15;4.05;;;23.40;63.70;;;;;;6238780;28;20172;-67
2023/06/10 00:24:42;;;;;;;10.88;4.45;;;23.40;63.60;;;;;;6238993;28;20080;-67
2023/06/10 00:27:43;;;;;;;7.60;4.20;;;23.40;63.60;;;;;;6237628;28;20564;-67
2023/06/10 00:30:43;;;;;;;9.05;4.40;;;23.40;63.30;;;;;;6239159;28;20021;-68
2023/06/10 00:33:44;;;;;;;6.07;4.47;;;23.40;63.20;;;;;;6241907;28;20026;-67
2023/06/10 00:36:45;;;;;;;7.63;4.57;;;23.40;64.00;;;;;;6242546;28;20350;-70
2023/06/10 00:39:46;;;;;;;8.45;4.45;;;23.40;63.00;;;;;;6242855;28;20488;-68
2023/06/10 00:42:47;;;;;;;9.63;4.60;;;23.30;62.80;;;;;;6241957;28;20017;-68
2023/06/10 00:45:49;;;;;;;8.88;4.53;;;23.40;62.90;;;;;;6242481;28;20520;-68
2023/06/10 00:48:49;;;;;;;9.18;3.78;;;23.40;62.80;;;;;;6225800;28;20044;-68
2023/06/10 00:51:52;;;;;;;7.22;4.07;;;23.40;62.50;;;;;;6243436;28;20033;-68
2023/06/10 00:54:53;;;;;;;5.75;4.22;;;23.40;62.30;;;;;;6241968;28;20033;-68
2023/06/10 00:57:54;;;;;;;10.93;4.65;;;23.40;62.40;;;;;;6242283;28;20457;-68
2023/06/10 01:00:55;;;;;;;10.00;4.43;;;23.40;62.60;;;;;;6243375;28;20045;-68
2023/06/10 01:03:58;;;;;;;9.52;3.92;;;23.30;62.70;;;;;;6225071;28;20143;-68
2023/06/10 01:07:21;;;;;;;7.43;4.20;;;23.30;62.90;;;;;;6241522;28;20579;-68
2023/06/10 01:10:34;;;;;;;8.32;3.97;;;23.30;63.20;;;;;;6243307;28;20720;-68
2023/06/10 01:13:38;;;;;;;6.40;3.88;;;23.30;63.30;;;;;;6243018;28;20496;-68
2023/06/10 01:16:40;;;;;;;9.10;4.93;;;23.30;63.40;;;;;;6243071;28;20112;-68
2023/06/10 01:19:43;;;;;;;6.32;4.10;;;23.30;63.50;;;;;;6241229;28;20536;-68
2023/06/10 01:22:45;;;;;;;10.38;4.10;;;23.20;63.50;;;;;;6241259;28;20037;-68
2023/06/10 01:26:02;;;;;;;13.25;4.85;;;23.20;63.60;;;;;;6243068;28;20033;-68
2023/06/10 01:29:20;;;;;;;6.88;4.60;;;23.10;63.80;;;;;;6242876;28;20111;-68
2023/06/10 01:32:34;;;;;;;8.77;4.18;;;23.10;64.00;;;;;;6241005;28;20076;-68
2023/06/10 01:35:37;;;;;;;7.90;4.00;;;23.10;64.20;;;;;;6243170;28;20148;-68
2023/06/10 01:38:47;;;;;;;5.65;3.80;;;23.10;64.30;;;;;;6257563;28;20079;-67
2023/06/10 01:41:49;;;;;;;5.88;3.55;;;23.00;64.30;;;;;;6257540;28;20041;-68
2023/06/10 01:44:50;;;;;;;8.80;4.88;;;23.00;64.30;;;;;;6241430;28;20391;-68
2023/06/10 01:47:51;;;;;;;9.85;5.10;;;23.00;64.40;;;;;;6224735;28;20111;-68
2023/06/10 01:50:52;;;;;;;8.32;5.30;;;23.00;64.80;;;;;;6242346;28;20465;-67
2023/06/10 01:53:53;;;;;;;10.05;4.63;;;23.00;64.80;;;;;;6241791;28;20044;-68
2023/06/10 01:56:54;;;;;;;8.45;4.82;;;22.90;64.90;;;;;;6240460;28;20037;-69
2023/06/10 01:59:56;;;;;;;8.00;4.45;;;22.90;65.00;;;;;;6240687;28;20052;-69
2023/06/10 02:02:56;;;;;;;7.88;4.72;;;22.90;65.10;;;;;;6241653;28;20025;-67
2023/06/10 02:05:57;;;;;;;10.52;4.75;;;22.90;65.30;;;;;;6240520;28;20038;-69
2023/06/10 02:08:58;;;;;;;9.30;4.65;;;22.80;65.40;;;;;;6241602;28;20068;-68
2023/06/10 02:11:59;;;;;;;6.68;4.45;;;22.70;65.60;;;;;;6240082;28;20710;-68
2023/06/10 02:15:00;;;;;;;11.27;4.72;;;22.70;65.70;;;;;;6240016;28;20033;-68
2023/06/10 02:18:01;;;;;;;9.05;4.57;;;22.70;65.90;;;;;;6239918;28;20037;-69
2023/06/10 02:21:01;;;;;;;6.15;4.45;;;22.70;66.00;;;;;;6241530;28;20080;-68
2023/06/10 02:24:02;;;;;;;7.45;4.68;;;22.70;66.20;;;;;;6241243;28;20633;-68
2023/06/10 02:27:06;;;;;;;10.70;5.25;;;22.60;66.20;;;;;;6239967;28;20129;-68
2023/06/10 02:30:10;;;;;;;12.88;4.55;;;22.60;66.40;;;;;;6256535;28;20562;-68
2023/06/10 02:33:11;;;;;;;7.93;4.93;;;22.60;66.30;;;;;;6239704;28;20030;-67
2023/06/10 02:36:13;;;;;;;7.63;4.40;;;22.70;66.40;;;;;;6239847;28;20370;-67
2023/06/10 02:39:14;;;;;;;9.75;5.15;;;22.60;66.40;;;;;;6222899;28;20044;-67
2023/06/10 02:42:15;;;;;;;9.70;5.00;;;22.70;66.40;;;;;;6239480;28;20158;-69
2023/06/10 02:45:16;;;;;;;10.70;5.43;;;22.70;66.40;;;;;;6223038;28;20622;-68
2023/06/10 02:48:18;;;;;;;11.52;5.53;;;22.70;66.40;;;;;;6239730;28;20029;-68
2023/06/10 02:51:19;;;;;;;7.50;4.80;;;22.70;66.30;;;;;;6222820;28;20056;-67
2023/06/10 02:54:24;;;;;;;6.80;4.80;;;22.70;66.20;;;;;;6223113;28;20083;-68
2023/06/10 02:57:25;;;;;;;10.95;4.93;;;22.70;66.10;;;;;;6239358;28;20056;-67
2023/06/10 03:00:26;;;;;;;7.93;4.95;;;22.70;66.10;;;;;;6239309;28;20533;-68
2023/06/10 03:03:28;;;;;;;5.28;3.90;;;22.70;66.10;;;;;;6238914;28;20103;-68
2023/06/10 03:06:38;;;;;;;8.77;4.50;;;22.70;66.00;;;;;;6239280;28;20041;-68
2023/06/10 03:09:50;;;;;;;8.50;4.20;;;22.70;65.90;;;;;;6239210;28;20228;-68
2023/06/10 03:12:51;;;;;;;13.18;3.72;;;22.70;65.80;;;;;;6239092;28;20119;-68
2023/06/10 03:15:52;;;;;;;6.60;3.90;;;22.80;65.60;;;;;;6222730;28;20524;-68
2023/06/10 03:18:56;;;;;;;5.43;3.80;;;22.80;65.40;;;;;;6238855;28;20363;-68
2023/06/10 03:22:10;;;;;;;5.88;3.83;;;22.70;65.10;;;;;;6238391;28;20383;-67
2023/06/10 03:25:16;;;;;;;15.90;4.00;;;22.70;65.10;;;;;;6238670;28;20162;-67
2023/06/10 03:28:21;;;;;;;9.35;4.75;;;22.70;64.90;;;;;;6222703;28;20022;-68
2023/06/10 03:31:24;;;;;;;11.32;3.92;;;22.70;64.90;;;;;;6239964;28;20033;-67
2023/06/10 03:34:27;;;;;;;12.20;4.50;;;22.60;64.70;;;;;;6238686;28;20079;-69
2023/06/10 03:37:28;;;;;;;8.48;4.20;;;22.60;64.60;;;;;;6238759;28;20034;-69
2023/06/10 03:40:31;;;;;;;6.20;4.10;;;22.60;64.60;;;;;;6240524;28;20029;-67
2023/06/10 03:43:32;;;;;;;7.68;3.88;;;22.60;64.40;;;;;;6239931;28;20045;-67
2023/06/10 03:46:33;;;;;;;7.40;4.05;;;22.60;64.30;;;;;;6238334;28;20391;-67
2023/06/10 03:49:34;;;;;;;9.90;4.22;;;22.70;64.20;;;;;;6238281;28;20379;-67
2023/06/10 03:52:39;;;;;;;7.05;4.05;;;22.70;65.00;;;;;;6237934;28;20205;-67
2023/06/10 03:55:41;;;;;;;9.82;4.93;;;22.70;64.10;;;;;;6222033;28;20037;-68
2023/06/10 03:58:43;;;;;;;7.53;4.47;;;22.80;64.10;;;;;;6238590;28;20037;-67
2023/06/10 04:01:44;;;;;;;9.68;4.90;;;22.80;64.20;;;;;;6237864;28;20133;-68
2023/06/10 04:04:45;;;;;;;6.75;4.18;;;22.80;64.20;;;;;;6255021;28;20044;-67
2023/06/10 04:07:48;;;;;;;10.25;4.65;;;22.80;64.10;;;;;;6241411;28;20034;-68
2023/06/10 04:10:49;;;;;;;9.95;4.65;;;22.80;64.00;;;;;;6245243;28;20075;-68
2023/06/10 04:13:52;;;;;;;13.68;4.57;;;22.80;64.00;;;;;;6243365;28;20064;-69
2023/06/10 04:16:53;;;;;;;6.53;4.50;;;22.70;64.00;;;;;;6243603;28;20133;-69
2023/06/10 04:19:57;;;;;;;6.85;4.07;;;22.80;64.10;;;;;;6244454;28;20110;-69
2023/06/10 04:22:59;;;;;;;7.05;4.35;;;22.90;64.10;;;;;;6242640;28;20033;-68
2023/06/10 04:26:01;;;;;;;10.98;4.65;;;22.90;63.90;;;;;;6242707;28;20540;-68
2023/06/10 04:29:03;;;;;;;8.95;4.35;;;22.90;63.90;;;;;;6243022;28;20037;-68
2023/06/10 04:32:06;;;;;;;8.43;4.57;;;22.90;64.00;;;;;;6242218;28;20069;-68
2023/06/10 04:35:08;;;;;;;11.93;5.90;;;22.90;64.20;;;;;;6243063;28;20029;-68
2023/06/10 04:38:09;;;;;;;16.00;5.13;;;22.90;64.20;;;;;;6244300;28;20029;-69
2023/06/10 04:41:11;;;;;;;10.82;5.15;;;22.90;64.20;;;;;;6242595;28;20044;-68
2023/06/10 04:44:13;;;;;;;7.85;4.85;;;22.90;64.40;;;;;;6242687;28;20557;-68
2023/06/10 04:47:17;;;;;;;8.68;4.38;;;22.90;64.60;;;;;;6226686;28;20032;-68
2023/06/10 04:50:19;;;;;;;10.75;4.45;;;22.90;64.20;;;;;;6242416;28;20041;-68
2023/06/10 04:53:20;;;;;;;9.98;4.50;;;22.90;64.20;;;;;;6225745;28;20034;-69
2023/06/10 04:56:22;;;;;;;9.77;4.85;;;22.90;64.10;;;;;;6242100;28;20068;-68
2023/06/10 04:59:22;;;;;;;6.72;4.00;;;22.90;64.90;;;;;;6243801;28;20044;-68
2023/06/10 05:02:23;;;;;;;8.55;4.90;;;22.90;64.10;;;;;;6241795;28;20580;-68
2023/06/10 05:05:24;;;;;;;9.88;5.30;;;22.90;64.00;;;;;;6243731;28;20038;-67
2023/06/10 05:08:25;;;;;;;9.80;4.47;;;23.00;63.90;;;;;;6243609;28;20108;-67
2023/06/10 05:11:26;;;;;;;7.63;4.60;;;23.00;63.90;;;;;;6243232;28;20075;-69
2023/06/10 05:14:27;;;;;;;8.48;4.95;;;23.10;63.90;;;;;;6243825;28;20033;-68
2023/06/10 05:17:28;;;;;;;7.60;5.25;;;23.10;64.00;;;;;;6242807;28;20410;-68
2023/06/10 05:20:29;;;;;;;9.18;4.80;;;23.20;64.10;;;;;;6243619;28;20051;-69
2023/06/10 05:23:30;;;;;;;9.07;4.78;;;23.20;64.20;;;;;;6241233;28;20041;-69
2023/06/10 05:26:37;;;;;;;17.17;4.90;;;23.20;64.30;;;;;;6243231;28;20030;-68
2023/06/10 05:29:38;;;;;;;11.90;4.72;;;23.10;64.30;;;;;;6243267;28;20064;-68
2023/06/10 05:32:38;;;;;;;9.10;4.97;;;23.20;64.40;;;;;;6242710;28;20045;-68
2023/06/10 05:35:40;;;;;;;12.20;5.47;;;23.20;64.50;;;;;;6243377;28;20385;-69
2023/06/10 05:38:41;;;;;;;12.30;4.82;;;23.20;64.30;;;;;;6242966;28;20037;-69
2023/06/10 05:41:42;;;;;;;15.40;5.25;;;23.20;64.40;;;;;;6242387;28;20044;-68
2023/06/10 05:44:43;;;;;;;12.70;4.82;;;23.20;64.30;;;;;;6242713;28;20034;-67
2023/06/10 05:47:43;;;;;;;9.18;5.00;;;23.20;64.20;;;;;;6243072;28;20053;-68
2023/06/10 05:50:48;;;;;;;12.23;5.38;;;23.20;64.10;;;;;;6242262;28;20025;-67
2023/06/10 05:53:48;;;;;;;13.50;5.22;;;23.30;64.10;;;;;;6242155;28;20030;-68
2023/06/10 05:56:49;;;;;;;11.65;5.30;;;23.30;63.90;;;;;;6242186;28;20028;-69
2023/06/10 05:59:50;;;;;;;10.60;5.05;;;23.20;63.90;;;;;;6257121;28;20026;-68
2023/06/10 06:02:52;;;;;;;9.85;4.68;;;23.20;63.90;;;;;;6242003;28;20072;-68
2023/06/10 06:05:53;;;;;;;11.73;5.45;;;23.30;64.00;;;;;;6242440;28;20168;-67
2023/06/10 06:08:54;;;;;;;10.93;5.65;;;23.30;63.90;;;;;;6232244;28;20467;-67
2023/06/10 06:11:54;;;;;;;9.73;5.30;;;23.40;63.80;;;;;;6216120;28;20026;-68
2023/06/10 06:14:55;;;;;;;12.82;5.70;;;23.40;63.50;;;;;;6217667;28;20038;-68
2023/06/10 06:17:56;;;;;;;9.48;5.68;;;23.40;63.50;;;;;;6216083;28;20201;-69
2023/06/10 06:20:57;;;;;;;11.38;5.57;;;23.40;63.40;;;;;;6217042;28;20036;-69
2023/06/10 06:23:59;;;;;;;10.80;6.15;;;23.50;63.30;;;;;;6226749;28;20040;-69
2023/06/10 06:27:00;;;;;;;20.27;6.32;;;23.60;63.20;;;;;;6256667;28;20105;-68
2023/06/10 06:30:01;;;;;;;8.77;5.05;;;23.70;63.10;;;;;;6256533;28;20029;-68
2023/06/10 06:33:02;;;;;;;8.23;5.45;;;23.70;62.80;;;;;;6241334;28;20450;-68
2023/06/10 06:36:03;;;;;;;13.55;5.55;;;23.80;62.70;;;;;;6240868;28;20470;-69
2023/06/10 06:39:04;;;;;;;11.13;5.38;;;23.80;62.30;;;;;;6241568;28;20032;-69
2023/06/10 06:42:06;;;;;;;16.40;5.45;;;23.90;62.00;;;;;;6223017;28;20038;-68
2023/06/10 06:45:25;;;;;;;13.90;5.32;;;23.90;61.80;;;;;;6216998;28;20042;-68
2023/06/10 06:48:26;;;;;;;11.27;5.80;;;23.90;61.90;;;;;;6215430;28;20036;-69
2023/06/10 06:51:27;;;;;;;14.45;5.70;;;23.90;61.90;;;;;;6216538;28;20030;-68
2023/06/10 06:54:28;;;;;;;12.63;5.85;;;24.00;61.90;;;;;;6215209;28;20109;-67
2023/06/10 06:57:29;;;;;;;11.80;5.45;;;24.00;61.80;;;;;;6234022;28;20025;-68
2023/06/10 07:00:31;;;;;;;15.57;5.55;;;24.00;61.70;;;;;;6241194;28;20397;-69
2023/06/10 07:03:32;;;;;;;10.23;6.07;;;24.00;61.30;;;;;;6230981;28;20048;-69
2023/06/10 07:06:33;;;;;;;12.63;5.65;;;24.00;61.10;;;;;;6240443;28;20037;-70
2023/06/10 07:09:33;;;;;;;10.13;5.22;;;24.00;61.10;;;;;;6240992;28;20029;-70
2023/06/10 07:12:34;;;;;;;10.10;5.70;;;24.00;60.90;;;;;;6241002;28;20049;-69
2023/06/10 07:15:35;;;;;;;9.85;4.93;;;24.10;61.00;;;;;;6241251;28;20141;-69
2023/06/10 07:18:36;;;;;;;18.13;5.75;;;24.10;60.70;;;;;;6241032;28;20029;-68
2023/06/10 07:21:37;;;;;;;11.73;5.65;;;24.20;60.60;;;;;;6239794;28;20493;-69
2023/06/10 07:24:38;;;;;;;15.93;5.43;;;24.20;60.00;;;;;;6240087;28;20036;-69
2023/06/10 07:27:39;;;;;;;7.70;4.30;;;24.30;59.90;;;;;;6221905;28;20025;-70
2023/06/10 07:30:40;;;;;;;7.93;4.90;;;24.30;59.90;;;;;;6240703;28;20028;-70
2023/06/10 07:33:41;;;;;;;9.07;4.55;;;24.50;59.50;;;;;;6239103;28;20034;-69
2023/06/10 07:36:42;;;;;;;13.65;5.22;;;24.60;59.20;;;;;;6239062;28;20123;-68
2023/06/10 07:39:43;;;;;;;11.77;5.70;;;24.70;59.00;;;;;;6238901;28;20065;-69
2023/06/10 07:42:43;;;;;;;7.93;4.93;;;24.80;58.90;;;;;;6237408;28;20394;-70
2023/06/10 07:45:45;;;;;;;12.38;4.90;;;24.80;58.50;;;;;;6240198;28;20029;-70
2023/06/10 07:48:45;;;;;;;7.13;4.32;;;24.90;58.20;;;;;;6238634;28;20037;-69
2023/06/10 07:51:46;;;;;;;7.32;4.78;;;25.00;58.00;;;;;;6239559;28;20354;-68
2023/06/10 07:54:47;;;;;;;13.13;5.05;;;25.00;57.70;;;;;;6240099;28;20112;-69
2023/06/10 07:57:48;;;;;;;9.77;5.13;;;25.00;57.50;;;;;;6239887;28;20033;-69
2023/06/10 08:00:49;;;;;;;11.88;4.60;;;25.10;57.50;;;;;;6239295;28;20037;-69
2023/06/10 08:03:50;;;;;;;8.85;4.70;;;25.20;57.40;;;;;;6238483;28;20044;-69
2023/06/10 08:06:51;;;;;;;10.15;4.70;;;25.50;57.50;;;;;;6239765;28;20026;-68
2023/06/10 08:09:51;;;;;;;6.70;4.32;;;25.70;56.10;;;;;;6239782;28;20112;-69
2023/06/10 08:12:52;;;;;;;5.85;3.90;;;25.80;55.70;;;;;;6239464;28;20037;-69
2023/06/10 08:15:55;;;;;;;10.10;4.70;;;25.80;55.10;;;;;;6239998;28;20045;-68
2023/06/10 08:18:55;;;;;;;10.30;4.38;;;25.80;55.20;;;;;;6239702;28;20045;-69
2023/06/10 08:21:56;;;;;;;8.50;4.30;;;25.90;55.10;;;;;;6238794;28;20041;-69
2023/06/10 08:24:57;;;;;;;9.55;4.20;;;26.10;54.80;;;;;;6239264;28;20090;-69
2023/06/10 08:27:58;;;;;;;6.57;4.15;;;26.20;54.50;;;;;;6221776;28;20034;-69
2023/06/10 08:30:59;;;;;;;6.53;4.05;;;26.30;54.30;;;;;;6254380;28;20025;-69
2023/06/10 08:34:00;;;;;;;8.10;4.07;;;26.40;54.10;;;;;;6239657;28;20458;-70
2023/06/10 08:37:01;;;;;;;7.07;4.10;;;26.60;53.90;;;;;;6239392;28;20055;-71
2023/06/10 08:40:02;;;;;;;12.48;3.83;;;26.80;53.50;;;;;;6239323;28;20030;-69
2023/06/10 08:43:08;;;;;;;9.98;3.30;;;27.00;53.20;;;;;;6237231;28;20031;-71
2023/06/10 08:46:10;;;;;;;7.85;3.38;;;27.10;52.50;;;;;;6237606;28;20075;-69
2023/06/10 08:49:17;;;;;;;6.30;3.25;;;27.30;52.10;;;;;;6237514;28;20431;-69
2023/06/10 08:52:19;;;;;;;5.63;2.97;;;27.40;51.70;;;;;;6239760;28;20033;-68
2023/06/10 08:55:31;;;;;;;6.82;3.35;;;27.40;51.00;;;;;;6244075;28;20080;-69
2023/06/10 08:58:41;;;;;;;5.65;3.72;;;27.40;51.00;;;;;;6243589;28;20120;-71
2023/06/10 09:01:43;;;;;;;5.00;3.45;;;27.60;50.90;;;;;;6243466;28;20176;-70
2023/06/10 09:04:45;;;;;;;5.20;3.38;;;27.70;50.30;;;;;;6243460;28;20036;-68
2023/06/10 09:07:48;;;;;;;5.55;3.45;;;27.70;50.10;;;;;;6243248;28;20029;-69
2023/06/10 09:10:49;;;;;;;9.40;4.47;;;27.80;50.10;;;;;;6243297;28;20136;-68
2023/06/10 09:13:50;;;;;;;4.53;3.15;;;27.80;49.80;;;;;;6241327;28;20116;-69
2023/06/10 09:16:51;;;;;;;6.63;3.72;;;27.90;49.60;;;;;;6242907;28;20476;-68
2023/06/10 09:19:55;;;;;;;6.68;3.65;;;28.00;49.20;;;;;;6243062;28;20037;-69
2023/06/10 09:22:56;;;;;;;6.07;3.42;;;28.00;49.20;;;;;;6242840;28;20504;-69
2023/06/10 09:25:57;;;;;;;5.25;3.10;;;28.00;48.80;;;;;;6242666;28;20086;-70
2023/06/10 09:29:04;;;;;;;4.43;2.78;;;28.00;48.80;;;;;;6242967;28;20021;-70
2023/06/10 09:32:06;;;;;;;3.60;2.60;;;28.10;48.60;;;;;;6242782;28;20335;-68
2023/06/10 09:35:11;;;;;;;8.55;3.35;;;28.10;48.40;;;;;;6241341;28;20037;-68
2023/06/10 09:38:13;;;;;;;6.45;3.20;;;28.20;48.30;;;;;;6242507;28;20037;-69
2023/06/10 09:41:15;;;;;;;6.30;2.83;;;28.30;48.00;;;;;;6242340;28;20366;-68
2023/06/10 09:44:18;;;;;;;5.60;3.15;;;28.40;47.90;;;;;;6242390;28;20033;-69
2023/06/10 09:47:22;;;;;;;5.60;2.97;;;28.40;47.70;;;;;;6241281;28;20033;-70
2023/06/10 09:50:23;;;;;;;9.05;3.28;;;28.40;47.70;;;;;;6241379;28;20462;-69
2023/06/10 09:53:24;;;;;;;9.27;3.33;;;28.50;47.60;;;;;;6242206;28;20037;-69
2023/06/10 09:56:35;;;;;;;9.05;3.05;;;28.50;47.30;;;;;;6240962;28;20044;-69
2023/06/10 09:59:38;;;;;;;9.20;2.83;;;28.70;47.10;;;;;;6240665;28;20053;-69
2023/06/10 10:02:50;;;;;;;5.90;2.92;;;28.80;47.10;;;;;;6242367;28;20029;-70
2023/06/10 10:05:59;;;;;;;6.30;2.45;;;29.00;46.80;;;;;;6239901;28;20755;-70
2023/06/10 10:09:00;;;;;;;6.35;2.33;;;29.10;46.10;;;;;;6215087;28;20018;-70
2023/06/10 10:12:02;;;;;;;4.63;1.98;;;29.30;45.80;;;;;;6217380;28;20539;-69
2023/06/10 10:15:05;;;;;;;5.13;2.60;;;29.30;45.50;;;;;;6217323;28;20072;-69
2023/06/10 10:18:22;;;;;;;5.22;2.20;;;29.20;45.30;;;;;;6217133;28;20041;-69
2023/06/10 10:21:27;;;;;;;4.30;2.30;;;29.20;45.40;;;;;;6215526;28;20112;-68
2023/06/10 10:24:42;;;;;;;3.55;2.20;;;29.30;45.40;;;;;;6215638;28;20034;-70
2023/06/10 10:27:49;;;;;;;4.72;2.35;;;29.30;45.10;;;;;;6217192;28;20395;-69
2023/06/10 10:30:52;;;;;;;4.35;2.38;;;29.40;44.90;;;;;;6215650;28;20479;-69
2023/06/10 10:33:59;;;;;;;4.93;2.50;;;29.50;44.70;;;;;;6215087;28;20478;-70
2023/06/10 10:37:01;;;;;;;5.93;2.33;;;29.60;44.20;;;;;;6215428;28;20030;-69
2023/06/10 10:40:03;;;;;;;4.32;1.67;;;29.80;43.80;;;;;;6217127;28;20030;-69
2023/06/10 10:43:05;;;;;;;4.97;1.52;;;29.90;43.40;;;;;;6239716;28;20079;-69
2023/06/10 10:46:16;;;;;;;6.57;1.90;;;30.10;43.20;;;;;;6241038;28;20038;-69
2023/06/10 10:49:18;;;;;;;3.90;1.45;;;30.30;42.90;;;;;;6241120;28;20112;-70
2023/06/10 10:52:19;;;;;;;2.85;1.70;;;30.50;42.00;;;;;;6235959;28;20695;-69
2023/06/10 10:55:20;;;;;;;3.55;1.70;;;30.70;41.60;;;;;;6215972;28;20026;-70
2023/06/10 10:58:24;;;;;;;3.45;1.48;;;30.90;41.10;;;;;;6216424;28;20060;-69
2023/06/10 11:01:41;;;;;;;3.80;1.60;;;31.10;40.60;;;;;;6214857;28;20129;-70
2023/06/10 11:04:46;;;;;;;3.47;1.60;;;31.30;40.00;;;;;;6217068;28;20049;-69
2023/06/10 11:07:57;;;;;;;2.42;1.52;;;31.70;39.40;;;;;;6227305;28;20068;-70
2023/06/10 11:10:58;;;;;;;3.35;1.73;;;32.60;38.30;;;;;;6216187;28;20058;-68
2023/06/10 11:14:01;;;;;;;5.07;0.93;;;33.50;36.80;;;;;;6240016;28;20466;-68
2023/06/10 11:17:18;;;;;;;3.67;1.30;;;34.10;35.70;;;;;;6238950;28;20061;-69
2023/06/10 11:20:51;;;;;;;1.92;1.40;;;33.80;34.30;;;;;;6240338;28;20025;-69
2023/06/10 11:23:51;;;;;;;2.22;1.30;;;33.30;34.60;;;;;;6238564;28;20037;-69
2023/06/10 11:26:52;;;;;;;1.65;0.98;;;32.80;35.10;;;;;;6238808;28;20073;-70
2023/06/10 11:30:05;;;;;;;2.60;1.20;;;32.60;35.30;;;;;;6239105;28;20044;-70
2023/06/10 11:33:06;;;;;;;2.50;1.10;;;32.30;35.40;;;;;;6235192;28;20069;-68
2023/06/10 11:36:08;;;;;;;3.80;1.40;;;32.20;36.30;;;;;;6239829;28;20116;-70
2023/06/10 11:39:10;;;;;;;4.30;1.40;;;32.10;35.90;;;;;;6239546;28;20087;-69
2023/06/10 11:42:11;;;;;;;1.77;1.02;;;32.10;36.00;;;;;;6239413;28;20095;-68
2023/06/10 11:45:18;;;;;;;1.20;1.10;;;32.20;35.80;;;;;;6239816;28;20056;-68
2023/06/10 11:48:19;;;;;;;2.10;1.27;;;32.40;35.20;;;;;;6239648;28;20059;-70
2023/06/10 11:51:20;;;;;;;5.40;1.20;;;32.60;35.00;;;;;;6238058;28;20609;-70
2023/06/10 11:54:22;;;;;;;2.92;1.17;;;32.90;34.40;;;;;;6238901;28;20056;-70
2023/06/10 11:57:23;;;;;;;1.52;0.93;;;33.50;33.40;;;;;;6237823;28;20048;-70
2023/06/10 12:00:24;;;;;;;2.25;1.33;;;33.60;32.80;;;;;;6237573;28;20150;-69
2023/06/10 12:03:25;;;;;;;2.83;1.38;;;33.40;32.80;;;;;;6232015;28;20442;-69
2023/06/10 12:06:27;;;;;;;3.67;1.67;;;33.30;32.90;;;;;;6238329;28;20025;-70
2023/06/10 12:09:29;;;;;;;3.17;1.33;;;33.20;33.20;;;;;;6228136;28;20017;-71
2023/06/10 12:12:30;;;;;;;2.17;1.17;;;33.20;33.50;;;;;;6238894;28;20402;-70
2023/06/10 12:15:32;;;;;;;2.53;1.52;;;33.20;33.80;;;;;;6239340;28;20034;-70
2023/06/10 12:18:33;;;;;;;2.72;1.98;;;33.10;33.90;;;;;;6238607;28;20030;-71
2023/06/10 12:21:37;;;;;;;1.70;1.20;;;33.00;33.80;;;;;;6238811;28;20033;-71
2023/06/10 12:25:02;;;;;;;2.70;1.38;;;33.00;34.00;;;;;;6238770;28;20335;-69
2023/06/10 12:28:03;;;;;;;1.98;1.52;;;33.00;33.90;;;;;;6239664;28;20040;-69
2023/06/10 12:31:08;;;;;;;3.78;1.65;;;33.50;33.30;;;;;;6243955;28;20029;-70
2023/06/10 12:34:09;;;;;;;4.13;1.45;;;33.80;32.90;;;;;;6242020;28;20040;-70
2023/06/10 12:37:15;;;;;;;2.45;1.70;;;34.10;32.70;;;;;;6244057;28;20046;-71
2023/06/10 12:40:16;;;;;;;3.35;1.40;;;34.40;32.00;;;;;;6244106;28;20033;-71
2023/06/10 12:43:23;;;;;;;5.38;1.77;;;34.60;31.60;;;;;;6241743;28;20110;-69
2023/06/10 12:46:24;;;;;;;;;;;34.50;31.50;;;;;;6243267;28;20047;-68
2023/06/10 12:49:26;;;;;;;4.28;1.10;;;34.40;31.60;;;;;;6242591;28;19948;-69
2023/06/10 12:52:27;;;;;;;2.30;1.15;;;34.30;31.60;;;;;;6242884;28;20037;-69
2023/06/10 12:55:28;;;;;;;3.78;1.20;;;34.20;31.60;;;;;;6243590;28;20033;-71
2023/06/10 12:58:29;;;;;;;2.63;1.23;;;34.50;31.00;;;;;;6243652;28;20036;-70
2023/06/10 13:01:31;;;;;;;2.58;1.40;;;35.20;30.00;;;;;;6241898;28;20029;-70
2023/06/10 13:04:32;;;;;;;2.08;1.40;;;35.90;29.30;;;;;;6243743;28;20025;-70
2023/06/10 13:07:32;;;;;;;2.50;1.38;;;36.60;28.90;;;;;;6243581;28;20115;-69
2023/06/10 13:10:34;;;;;;;1.60;1.27;;;37.00;27.90;;;;;;6243437;28;20037;-70
2023/06/10 13:13:37;;;;;;;2.17;1.27;;;37.00;27.60;;;;;;6243544;28;20034;-69
2023/06/10 13:16:38;;;;;;;1.58;1.17;;;37.00;27.50;;;;;;6243344;28;20400;-71
2023/06/10 13:19:39;;;;;;;5.93;1.25;;;37.30;27.30;;;;;;6243034;28;20033;-71
2023/06/10 13:22:40;;;;;;;3.63;1.08;;;37.90;26.70;;;;;;6242513;28;20033;-70
2023/06/10 13:25:44;;;;;;;2.25;1.48;;;38.70;26.10;;;;;;6241634;28;20033;-72
2023/06/10 13:28:45;;;;;;;0.80;0.80;;;39.30;25.60;;;;;;6242905;28;20054;-70
2023/06/10 13:31:46;;;;;;;3.33;1.10;;;40.00;24.80;;;;;;6242382;28;20029;-71
2023/06/10 13:34:47;;;;;;;4.55;1.15;;;40.60;24.20;;;;;;6242654;28;20033;-71
2023/06/10 13:37:48;;;;;;;1.55;1.10;;;40.80;24.40;;;;;;6242763;28;20057;-70
2023/06/10 13:40:49;;;;;;;2.03;1.27;;;41.10;23.80;;;;;;6239659;28;20040;-71
2023/06/10 13:43:49;;;;;;;2.22;1.30;;;41.40;23.60;;;;;;6242173;28;20030;-70
2023/06/10 13:46:50;;;;;;;2.35;1.33;;;42.00;23.20;;;;;;6240732;28;20172;-73
2023/06/10 13:49:52;;;;;;;2.35;1.27;;;42.50;22.40;;;;;;6242545;28;20064;-70
2023/06/10 13:52:53;;;;;;;1.55;1.10;;;42.70;22.00;;;;;;6241936;28;20033;-71
2023/06/10 13:55:53;;;;;;;2.33;1.10;;;42.60;22.20;;;;;;6240444;28;20040;-70
2023/06/10 13:58:54;;;;;;;1.25;0.93;;;42.90;21.90;;;;;;6241961;28;20412;-70
2023/06/10 14:01:56;;;;;;;1.38;1.00;;;42.30;21.70;;;;;;6256839;28;20094;-71
2023/06/10 14:04:57;;;;;;;6.38;1.10;;;41.60;22.30;;;;;;6240875;28;20060;-70
2023/06/10 14:07:59;;;;;;;3.95;1.23;;;42.10;22.30;;;;;;6241994;28;20035;-72
2023/06/10 14:11:00;;;;;;;2.58;1.02;;;42.70;21.80;;;;;;6240146;28;20135;-71
2023/06/10 14:14:01;;;;;;;2.83;1.20;;;43.50;21.30;;;;;;6241136;28;20063;-71
2023/06/10 14:17:03;;;;;;;1.52;0.95;;;43.90;20.90;;;;;;6241430;28;20138;-71
2023/06/10 14:20:04;;;;;;;1.55;1.00;;;44.40;20.70;;;;;;6241687;28;20639;-70
2023/06/10 14:23:05;;;;;;;2.58;1.27;;;44.90;20.70;;;;;;6240712;28;20398;-73
2023/06/10 14:26:07;;;;;;;2.10;1.33;;;45.20;20.00;;;;;;6241129;28;20025;-70
2023/06/10 14:29:08;;;;;;;3.95;1.00;;;45.30;20.10;;;;;;6241443;28;20039;-72
2023/06/10 14:32:09;;;;;;;2.67;1.40;;;45.40;20.00;;;;;;6241207;28;20156;-71
2023/06/10 14:35:10;;;;;;;2.10;1.20;;;45.60;20.00;;;;;;6241028;28;20083;-70
2023/06/10 14:38:12;;;;;;;5.18;1.33;;;45.70;19.80;;;;;;6239651;28;20115;-71
2023/06/10 14:41:13;;;;;;;3.00;1.40;;;45.80;19.60;;;;;;6239709;28;20033;-72
2023/06/10 14:44:14;;;;;;;3.67;1.30;;;45.80;19.70;;;;;;6241009;28;20033;-70
2023/06/10 14:47:15;;;;;;;2.90;1.23;;;45.70;19.70;;;;;;6241187;28;20052;-70
2023/06/10 14:50:15;;;;;;;4.28;1.20;;;45.30;19.70;;;;;;6240530;28;20061;-70
2023/06/10 14:53:17;;;;;;;3.30;1.20;;;45.10;20.00;;;;;;6240643;28;20033;-71
2023/06/10 14:56:18;;;;;;;2.55;1.20;;;45.10;20.10;;;;;;6240855;28;20033;-71
2023/06/10 14:59:19;;;;;;;4.25;1.33;;;44.90;20.10;;;;;;6240944;28;20049;-70
2023/06/10 15:02:20;;;;;;;3.17;1.42;;;44.50;20.20;;;;;;6240500;28;20025;-71
2023/06/10 15:05:21;;;;;;;5.75;1.20;;;44.00;20.60;;;;;;6240330;28;20052;-69
2023/06/10 15:08:22;;;;;;;1.27;1.17;;;43.70;21.10;;;;;;6239100;28;20275;-70
2023/06/10 15:11:23;;;;;;;2.22;1.10;;;43.60;21.20;;;;;;6239299;28;20142;-70
2023/06/10 15:14:23;;;;;;;4.75;1.65;;;43.40;21.20;;;;;;6240724;28;20473;-69
2023/06/10 15:17:24;;;;;;;3.10;1.27;;;43.00;21.40;;;;;;6238702;28;20025;-69
2023/06/10 15:20:25;;;;;;;3.58;1.33;;;42.40;21.90;;;;;;6239125;28;20465;-69
2023/06/10 15:23:26;;;;;;;2.85;1.30;;;42.10;22.20;;;;;;6229914;28;20034;-69
2023/06/10 15:26:27;;;;;;;1.40;1.20;;;41.90;22.60;;;;;;6230548;28;20126;-70
2023/06/10 15:29:28;;;;;;;1.88;1.40;;;41.80;22.90;;;;;;6215642;28;20127;-70
2023/06/10 15:32:29;;;;;;;3.85;1.80;;;41.60;23.20;;;;;;6215124;28;20096;-69
2023/06/10 15:35:31;;;;;;;3.08;1.40;;;41.40;23.30;;;;;;6215474;28;20451;-69
2023/06/10 15:38:32;;;;;;;3.80;1.40;;;41.40;23.40;;;;;;6216377;28;20114;-70
2023/06/10 15:41:34;;;;;;;1.92;1.10;;;41.50;23.40;;;;;;6215744;28;20030;-69
2023/06/10 15:44:35;;;;;;;4.03;1.35;;;41.90;23.20;;;;;;6213895;28;20496;-69
2023/06/10 15:47:35;;;;;;;5.85;1.33;;;42.00;22.90;;;;;;6213433;28;20040;-69